createdAt,value
2023-04-11T00:00:08.285Z,37.31
2023-04-11T00:03:17.605Z,35.82
2023-04-11T00:07:11.359Z,35.12
2023-04-11T00:10:19.832Z,34.71
2023-04-11T00:13:27.281Z,33.27
2023-04-11T00:17:01.878Z,34.93
2023-04-11T00:20:09.129Z,32.15
2023-04-11T00:23:49.345Z,33.36
2023-04-11T00:27:03.240Z,32.25
2023-04-11T00:34:04.076Z,30.45
2023-04-11T00:40:37.850Z,31.44
2023-04-11T00:44:07.212Z,32.26
2023-04-11T00:47:14.261Z,29.93
2023-04-11T00:50:18.520Z,31.62
2023-04-11T00:53:27.364Z,30.28
2023-04-11T00:57:07.665Z,30.42
2023-04-11T01:00:54.459Z,31.77
2023-04-11T01:04:01.601Z,32.10
2023-04-11T01:07:10.859Z,32.29
2023-04-11T01:10:39.745Z,31.44
2023-04-11T01:13:44.668Z,30.04
2023-04-11T01:16:51.331Z,32.47
2023-04-11T01:19:54.950Z,32.97
2023-04-11T01:23:26.716Z,31.56
2023-04-11T01:26:36.513Z,32.33
2023-04-11T01:29:40.339Z,31.20
2023-04-11T01:32:47.128Z,32.53
2023-04-11T01:35:51.008Z,32.45
2023-04-11T01:39:51.339Z,34.86
2023-04-11T01:42:57.825Z,31.44
2023-04-11T01:46:06.314Z,33.88
2023-04-11T01:49:21.795Z,32.92
2023-04-11T01:52:28.332Z,32.18
2023-04-11T01:55:34.977Z,34.30
2023-04-11T01:58:42.204Z,32.74
2023-04-11T02:01:51.619Z,31.41
2023-04-11T02:05:00.134Z,31.98
2023-04-11T02:08:09.272Z,34.53
2023-04-11T02:11:32.089Z,33.35
2023-04-11T02:18:17.841Z,31.09
2023-04-11T02:21:54.009Z,33.91
2023-04-11T02:25:10.800Z,32.69
2023-04-11T02:28:38.373Z,33.59
2023-04-11T02:32:36.815Z,36.11
2023-04-11T02:35:44.283Z,33.88
2023-04-11T02:38:57.153Z,34.05
2023-04-11T02:42:08.303Z,34.70
2023-04-11T02:45:39.715Z,33.86
2023-04-11T02:49:05.475Z,33.36
2023-04-11T02:52:48.831Z,35.89
2023-04-11T02:56:00.380Z,33.73
2023-04-11T02:59:14.841Z,32.47
2023-04-11T03:02:19.134Z,34.40
2023-04-11T03:05:28.701Z,32.42
2023-04-11T03:13:11.310Z,34.12
2023-04-11T03:24:38.253Z,32.29
2023-04-11T03:27:50.679Z,32.46
2023-04-11T03:31:01.315Z,32.61
2023-04-11T03:34:10.102Z,29.15
2023-04-11T03:37:23.002Z,32.61
2023-04-11T03:40:50.055Z,33.58
2023-04-11T03:44:22.980Z,32.30
2023-04-11T03:47:41.188Z,32.93
2023-04-11T03:50:50.701Z,32.11
2023-04-11T03:53:59.298Z,33.69
2023-04-11T03:57:14.635Z,33.78
2023-04-11T04:00:22.170Z,31.13
2023-04-11T04:04:03.624Z,31.69
2023-04-11T04:07:23.299Z,31.45
2023-04-11T04:10:32.889Z,32.87
2023-04-11T04:14:27.657Z,29.90
2023-04-11T04:17:32.597Z,31.40
2023-04-11T04:24:26.973Z,30.66
2023-04-11T04:28:01.970Z,31.91
2023-04-11T04:31:36.286Z,31.60
2023-04-11T04:35:12.890Z,31.28
2023-04-11T04:38:34.426Z,28.64
2023-04-11T04:42:06.042Z,30.13
2023-04-11T04:45:17.681Z,34.80
2023-04-11T04:48:46.999Z,29.37
2023-04-11T04:52:06.922Z,26.87
2023-04-11T04:55:40.176Z,28.83
2023-04-11T04:58:50.998Z,27.00
2023-04-11T05:01:59.182Z,28.04
2023-04-11T05:05:11.643Z,27.73
2023-04-11T05:09:16.916Z,25.92
2023-04-11T05:12:31.306Z,27.72
2023-04-11T05:16:15.910Z,29.23
2023-04-11T05:19:23.413Z,30.38
2023-04-11T05:22:31.407Z,29.31
2023-04-11T05:25:35.981Z,26.97
2023-04-11T05:28:46.016Z,30.58
2023-04-11T05:31:56.959Z,29.24
2023-04-11T05:35:59.815Z,30.09
2023-04-11T05:39:11.999Z,27.80
2023-04-11T05:43:05.571Z,26.15
2023-04-11T05:49:49.647Z,26.26
2023-04-11T05:52:56.799Z,29.76
2023-04-11T05:56:27.030Z,26.57
2023-04-11T05:59:54.975Z,27.93
2023-04-11T06:03:07.264Z,25.70
2023-04-11T06:14:16.724Z,26.70
2023-04-11T06:17:21.322Z,30.18
2023-04-11T06:20:51.876Z,28.35
2023-04-11T06:23:58.280Z,28.64
2023-04-11T06:27:30.362Z,29.84
2023-04-11T06:30:39.304Z,25.91
2023-04-11T06:33:46.136Z,29.96
2023-04-11T06:36:51.872Z,27.34
2023-04-11T06:40:23.417Z,26.42
2023-04-11T06:43:45.308Z,27.23
2023-04-11T06:47:20.762Z,27.59
2023-04-11T06:50:40.514Z,26.18
2023-04-11T06:58:38.739Z,28.71
2023-04-11T07:02:20.027Z,27.91
2023-04-11T07:06:15.585Z,27.57
2023-04-11T07:10:12.957Z,27.50
2023-04-11T07:18:18.737Z,27.05
2023-04-11T07:21:26.316Z,25.78
2023-04-11T07:24:31.269Z,26.66
2023-04-11T07:36:54.096Z,28.03
2023-04-11T07:40:58.239Z,25.58
2023-04-11T07:48:48.202Z,26.31
2023-04-11T07:52:07.442Z,25.72
2023-04-11T07:59:52.601Z,26.81
2023-04-11T08:02:59.674Z,25.86
2023-04-11T08:06:03.704Z,24.26
2023-04-11T08:22:39.734Z,25.19
2023-04-11T08:25:45.984Z,24.13
2023-04-11T08:28:59.171Z,23.81
2023-04-11T08:32:59.063Z,24.18
2023-04-11T08:36:47.105Z,26.00
2023-04-11T08:49:05.837Z,25.77
2023-04-11T09:05:33.162Z,25.12
2023-04-11T09:08:48.012Z,25.89
2023-04-11T09:12:16.620Z,24.25
2023-04-11T09:16:21.254Z,26.44
2023-04-11T09:19:57.665Z,27.43
2023-04-11T09:28:56.808Z,24.86
2023-04-11T09:32:00.463Z,25.84
2023-04-11T09:40:09.068Z,26.40
2023-04-11T09:43:59.987Z,27.45
2023-04-11T09:47:13.117Z,26.55
2023-04-11T09:52:51.470Z,27.04
2023-04-11T09:55:28.700Z,26.99
2023-04-11T09:58:39.179Z,26.63
2023-04-11T10:03:05.442Z,26.70
2023-04-11T10:06:47.346Z,27.96
2023-04-11T10:13:59.436Z,25.59
2023-04-11T10:17:24.195Z,26.65
2023-04-11T10:25:56.100Z,26.74
2023-04-11T10:28:59.913Z,26.62
2023-04-11T10:44:37.648Z,27.93
2023-04-11T11:09:43.782Z,29.37
2023-04-11T11:13:00.322Z,29.64
2023-04-11T11:16:59.502Z,29.53
2023-04-11T11:28:25.423Z,32.41
2023-04-11T11:32:28.230Z,31.33
2023-04-11T11:36:17.307Z,32.30
2023-04-11T11:40:00.564Z,33.77
2023-04-11T11:43:31.075Z,33.31
2023-04-11T11:47:05.890Z,33.84
2023-04-11T11:50:34.745Z,33.36
2023-04-11T11:59:02.042Z,31.77
2023-04-11T12:02:46.941Z,32.48
2023-04-11T12:10:09.563Z,33.22
2023-04-11T12:14:02.050Z,33.92
2023-04-11T12:17:11.876Z,32.91
2023-04-11T12:21:04.768Z,32.22
2023-04-11T12:24:11.648Z,33.26
2023-04-11T12:27:29.471Z,32.32
2023-04-11T12:30:48.417Z,33.11
2023-04-11T12:34:17.014Z,33.81
2023-04-11T12:37:23.236Z,33.12
2023-04-11T12:40:26.845Z,33.58
2023-04-11T12:43:30.210Z,33.28
2023-04-11T12:53:38.861Z,36.08
2023-04-11T12:56:42.672Z,36.74
2023-04-11T12:59:52.510Z,37.06
2023-04-11T13:03:00.646Z,37.66
2023-04-11T13:06:07.858Z,37.68
2023-04-11T13:09:36.006Z,38.70
2023-04-11T13:12:47.278Z,37.62
2023-04-11T13:15:50.687Z,37.96
2023-04-11T13:18:54.268Z,37.42
2023-04-11T13:22:03.561Z,37.45
2023-04-11T13:25:07.744Z,38.16
2023-04-11T13:28:39.494Z,38.52
2023-04-11T13:31:45.666Z,37.38
2023-04-11T13:34:53.958Z,37.29
2023-04-11T13:38:00.444Z,37.88
2023-04-11T13:41:03.843Z,37.53
2023-04-11T13:44:13.601Z,37.58
2023-04-11T13:47:20.649Z,37.62
2023-04-11T13:50:32.173Z,37.26
2023-04-11T13:53:41.964Z,37.24
2023-04-11T13:56:58.521Z,37.93
2023-04-11T14:00:12.301Z,35.29
2023-04-11T14:03:43.474Z,33.96
2023-04-11T14:06:46.930Z,33.63
2023-04-11T14:09:57.088Z,32.78
2023-04-11T14:13:11.520Z,32.87
2023-04-11T14:16:40.600Z,33.21
2023-04-11T14:19:47.203Z,32.09
2023-04-11T14:22:50.679Z,32.80
2023-04-11T14:25:54.209Z,32.54
2023-04-11T14:28:57.527Z,32.39
2023-04-11T14:32:01.497Z,32.67
2023-04-11T14:35:05.642Z,32.92
2023-04-11T14:38:09.217Z,32.86
2023-04-11T14:41:12.680Z,31.75
2023-04-11T14:44:17.413Z,31.90
2023-04-11T14:47:21.024Z,31.88
2023-04-11T14:50:24.770Z,31.93
2023-04-11T14:53:29.016Z,32.25
2023-04-11T14:56:32.349Z,33.86
2023-04-11T14:59:35.725Z,34.64
2023-04-11T15:02:56.623Z,35.73
2023-04-11T15:06:00.418Z,36.00
2023-04-11T15:09:05.439Z,37.03
2023-04-11T15:12:09.041Z,37.57
2023-04-11T15:15:16.480Z,34.97
2023-04-11T15:18:30.900Z,33.30
2023-04-11T15:21:40.136Z,34.19
2023-04-11T15:24:43.556Z,41.68
2023-04-11T15:27:47.047Z,41.81
2023-04-11T15:30:52.727Z,42.57
2023-04-11T15:33:58.675Z,41.80
2023-04-11T15:37:02.259Z,43.02
2023-04-11T15:40:12.585Z,39.96
2023-04-11T15:43:16.237Z,41.66
2023-04-11T15:46:19.791Z,37.23
2023-04-11T15:49:23.212Z,34.61
2023-04-11T15:52:27.120Z,34.41
2023-04-11T15:55:38.830Z,33.82
2023-04-11T15:58:44.445Z,33.91
2023-04-11T16:01:57.490Z,32.21
2023-04-11T16:05:03.030Z,32.20
2023-04-11T16:08:07.984Z,32.26
2023-04-11T16:11:11.656Z,32.17
2023-04-11T16:14:15.202Z,32.47
2023-04-11T16:17:21.011Z,32.16
2023-04-11T16:20:24.427Z,32.19
2023-04-11T16:23:27.713Z,32.76
2023-04-11T16:26:31.182Z,32.82
2023-04-11T16:29:34.574Z,32.73
2023-04-11T16:32:37.966Z,32.29
2023-04-11T16:35:41.465Z,32.96
2023-04-11T16:38:44.833Z,33.38
2023-04-11T16:41:49.129Z,34.08
2023-04-11T16:45:02.037Z,32.66
2023-04-11T16:48:06.699Z,32.35
2023-04-11T16:51:12.231Z,34.74
2023-04-11T16:54:16.674Z,33.89
2023-04-11T16:57:19.984Z,33.97
2023-04-11T17:00:24.621Z,34.66
2023-04-11T17:03:28.289Z,36.57
2023-04-11T17:06:32.823Z,41.90
2023-04-11T17:09:36.260Z,44.02
2023-04-11T17:12:39.614Z,43.70
2023-04-11T17:15:42.969Z,44.93
2023-04-11T17:18:46.739Z,45.28
2023-04-11T17:21:50.158Z,44.94
2023-04-11T17:24:53.549Z,45.85
2023-04-11T17:27:57.862Z,46.21
2023-04-11T17:31:01.316Z,45.94
2023-04-11T17:34:05.174Z,46.19
2023-04-11T17:37:08.463Z,46.21
2023-04-11T17:40:13.496Z,45.90
2023-04-11T17:43:17.255Z,44.58
2023-04-11T17:46:20.941Z,44.93
2023-04-11T17:49:25.664Z,43.69
2023-04-11T17:52:29.395Z,45.45
2023-04-11T17:55:33.021Z,45.93
2023-04-11T17:58:36.456Z,46.34
2023-04-11T18:01:40.597Z,46.47
2023-04-11T18:04:44.470Z,47.42
2023-04-11T18:07:51.375Z,47.07
2023-04-11T18:10:56.863Z,47.58
2023-04-11T18:14:00.450Z,48.10
2023-04-11T18:17:04.019Z,48.43
2023-04-11T18:20:11.540Z,46.41
2023-04-11T18:23:14.942Z,48.02
2023-04-11T18:26:18.226Z,49.29
2023-04-11T18:29:21.593Z,49.76
2023-04-11T18:32:31.337Z,51.78
2023-04-11T18:35:38.874Z,51.99
2023-04-11T18:38:45.379Z,50.93
2023-04-11T18:41:49.320Z,51.69
2023-04-11T18:44:53.415Z,50.22
2023-04-11T18:47:57.192Z,51.69
2023-04-11T18:51:01.402Z,51.38
2023-04-11T18:54:05.501Z,51.70
2023-04-11T18:57:10.043Z,51.39
2023-04-11T19:00:19.220Z,50.75
2023-04-11T19:03:24.297Z,49.94
2023-04-11T19:06:27.961Z,49.51
2023-04-11T19:09:31.191Z,47.83
2023-04-11T19:12:34.779Z,49.09
2023-04-11T19:15:40.667Z,49.22
2023-04-11T19:18:43.956Z,50.00
2023-04-11T19:21:47.316Z,51.68
2023-04-11T19:24:50.656Z,51.86
2023-04-11T19:27:53.941Z,51.87
2023-04-11T19:30:57.230Z,50.06
2023-04-11T19:34:01.016Z,50.77
2023-04-11T19:37:04.363Z,50.43
2023-04-11T19:40:08.677Z,51.39
2023-04-11T19:43:11.955Z,52.31
2023-04-11T19:46:17.705Z,53.38
2023-04-11T19:49:21.387Z,53.40
2023-04-11T19:52:24.886Z,53.22
2023-04-11T19:55:28.591Z,52.72
2023-04-11T19:58:35.995Z,52.43
2023-04-11T20:01:39.469Z,53.23
2023-04-11T20:04:43.776Z,53.18
2023-04-11T20:07:48.489Z,53.83
2023-04-11T20:10:52.696Z,55.05
2023-04-11T20:13:56.532Z,53.77
2023-04-11T20:17:00.406Z,53.89
2023-04-11T20:20:07.074Z,54.18
2023-04-11T20:23:11.141Z,54.27
2023-04-11T20:26:14.544Z,54.64
2023-04-11T20:29:18.697Z,55.18
2023-04-11T20:32:22.087Z,54.83
2023-04-11T20:35:25.723Z,55.67
2023-04-11T20:38:29.137Z,55.92
2023-04-11T20:41:32.907Z,55.95
2023-04-11T20:44:36.848Z,56.39
2023-04-11T20:47:41.306Z,55.67
2023-04-11T20:50:47.826Z,54.92
2023-04-11T20:53:51.172Z,54.01
2023-04-11T20:56:54.492Z,54.60
2023-04-11T20:59:58.708Z,52.74
2023-04-11T21:03:02.256Z,54.84
2023-04-11T21:06:08.130Z,56.17
2023-04-11T21:09:11.555Z,56.49
2023-04-11T21:12:15.095Z,56.44
2023-04-11T21:15:22.382Z,56.80
2023-04-11T21:18:25.921Z,56.69
2023-04-11T21:21:29.328Z,57.01
2023-04-11T21:24:36.228Z,55.72
2023-04-11T21:27:45.817Z,54.91
2023-04-11T21:30:49.175Z,54.78
2023-04-11T21:33:53.135Z,55.10
2023-04-11T21:36:57.654Z,55.00
2023-04-11T21:40:01.344Z,54.04
2023-04-11T21:43:05.191Z,53.95
2023-04-11T21:46:08.755Z,54.75
2023-04-11T21:49:12.205Z,54.57
2023-04-11T21:52:15.560Z,55.33
2023-04-11T21:55:18.947Z,55.88
2023-04-11T21:58:29.109Z,55.54
2023-04-11T22:01:33.317Z,55.77
2023-04-11T22:04:47.345Z,55.02
2023-04-11T22:08:20.503Z,54.99
2023-04-11T22:11:24.337Z,53.50
2023-04-11T22:14:29.382Z,52.61
2023-04-11T22:17:33.295Z,53.21
2023-04-11T22:20:39.115Z,52.44
2023-04-11T22:23:43.655Z,51.89
2023-04-11T22:26:48.254Z,51.66
2023-04-11T22:29:52.955Z,52.21
2023-04-11T22:32:56.313Z,50.85
2023-04-11T22:35:59.752Z,51.31
2023-04-11T22:39:07.502Z,49.72
2023-04-11T22:42:12.228Z,46.60
2023-04-11T22:45:15.650Z,42.84
2023-04-11T22:48:19.022Z,40.02
2023-04-11T22:51:22.717Z,38.34
2023-04-11T22:54:28.342Z,36.27
2023-04-11T22:57:31.974Z,34.90
2023-04-11T23:00:38.814Z,33.40
2023-04-11T23:03:42.872Z,32.18
2023-04-11T23:06:51.805Z,30.95
2023-04-11T23:09:55.316Z,30.83
2023-04-11T23:12:58.881Z,29.51
2023-04-11T23:16:02.291Z,30.26
2023-04-11T23:19:05.690Z,28.50
2023-04-11T23:22:09.545Z,28.21
2023-04-11T23:25:13.430Z,26.49
2023-04-11T23:28:16.775Z,27.34
2023-04-11T23:31:20.255Z,26.68
2023-04-11T23:34:23.707Z,24.91
2023-04-11T23:37:29.892Z,24.95
2023-04-11T23:40:34.314Z,24.89
2023-04-11T23:43:37.796Z,23.85
2023-04-11T23:46:41.406Z,24.72
2023-04-11T23:49:45.265Z,24.06
2023-04-11T23:52:48.697Z,24.23
2023-04-11T23:55:52.650Z,24.39
2023-04-11T23:58:56.310Z,24.94
